createdAt,value
2023-05-21T00:02:20.376Z,13.17
2023-05-21T00:04:47.645Z,13.13
2023-05-21T00:07:15.401Z,13.09
2023-05-21T00:09:41.922Z,13.08
2023-05-21T00:12:09.785Z,13.07
2023-05-21T00:14:36.381Z,12.98
2023-05-21T00:17:03.003Z,12.92
2023-05-21T00:19:29.558Z,12.89
2023-05-21T00:21:57.595Z,12.88
2023-05-21T00:24:24.100Z,12.78
2023-05-21T00:26:50.736Z,12.76
2023-05-21T00:29:17.161Z,12.68
2023-05-21T00:31:43.796Z,12.70
2023-05-21T00:34:10.489Z,12.71
2023-05-21T00:36:36.989Z,12.70
2023-05-21T00:39:04.642Z,12.69
2023-05-21T00:41:31.358Z,12.66
2023-05-21T00:44:00.166Z,12.72
2023-05-21T00:46:28.514Z,12.70
2023-05-21T00:48:58.229Z,12.71
2023-05-21T00:51:25.811Z,12.63
2023-05-21T00:53:53.146Z,12.68
2023-05-21T00:56:21.935Z,12.69
2023-05-21T00:58:48.765Z,12.68
2023-05-21T01:01:15.994Z,12.62
2023-05-21T01:03:42.871Z,12.62
2023-05-21T01:06:10.659Z,12.58
2023-05-21T01:08:38.761Z,12.57
2023-05-21T01:11:07.164Z,12.58
2023-05-21T01:13:37.416Z,12.55
2023-05-21T01:16:06.573Z,12.51
2023-05-21T01:18:38.143Z,12.48
2023-05-21T01:21:07.282Z,12.44
2023-05-21T01:23:34.481Z,12.34
2023-05-21T01:26:01.070Z,12.40
2023-05-21T01:28:29.664Z,12.38
2023-05-21T01:30:59.300Z,12.43
2023-05-21T01:33:33.193Z,12.40
2023-05-21T01:36:34.646Z,12.35
2023-05-21T01:39:09.326Z,12.26
2023-05-21T01:41:41.609Z,12.29
2023-05-21T01:44:09.770Z,12.21
2023-05-21T01:46:37.541Z,12.21
2023-05-21T01:49:06.995Z,12.20
2023-05-21T01:51:34.537Z,12.20
2023-05-21T01:54:01.772Z,12.18
2023-05-21T01:56:28.645Z,12.15
2023-05-21T01:58:59.327Z,12.10
2023-05-21T02:01:26.960Z,11.99
2023-05-21T02:03:53.863Z,12.04
2023-05-21T02:06:20.764Z,12.05
2023-05-21T02:08:48.355Z,12.05
2023-05-21T02:11:15.020Z,11.97
2023-05-21T02:13:42.846Z,11.97
2023-05-21T02:16:14.573Z,11.90
2023-05-21T02:18:43.675Z,11.83
2023-05-21T02:21:11.466Z,11.89
2023-05-21T02:23:38.137Z,11.90
2023-05-21T02:26:04.814Z,11.96
2023-05-21T02:28:32.900Z,11.98
2023-05-21T02:30:59.530Z,11.99
2023-05-21T02:33:26.257Z,11.92
2023-05-21T02:35:52.754Z,11.94
2023-05-21T02:38:19.661Z,11.96
2023-05-21T02:40:46.567Z,11.94
2023-05-21T02:43:15.396Z,11.91
2023-05-21T02:45:43.309Z,11.88
2023-05-21T02:48:10.153Z,11.94
2023-05-21T02:50:39.956Z,11.91
2023-05-21T02:53:07.248Z,11.85
2023-05-21T02:55:35.568Z,11.84
2023-05-21T02:58:02.492Z,11.84
2023-05-21T03:00:28.947Z,11.84
2023-05-21T03:02:55.754Z,11.87
2023-05-21T03:05:22.384Z,11.89
2023-05-21T03:07:50.276Z,11.89
2023-05-21T03:10:17.159Z,11.89
2023-05-21T03:12:43.673Z,11.96
2023-05-21T03:15:14.657Z,12.01
2023-05-21T03:17:44.717Z,11.94
2023-05-21T03:20:16.261Z,11.97
2023-05-21T03:22:44.584Z,11.99
2023-05-21T03:25:12.703Z,12.01
2023-05-21T03:27:39.845Z,12.06
2023-05-21T03:30:13.540Z,12.07
2023-05-21T03:32:57.890Z,12.05
2023-05-21T03:35:24.497Z,12.06
2023-05-21T03:37:51.293Z,12.05
2023-05-21T03:40:17.754Z,12.13
2023-05-21T03:42:44.409Z,12.20
2023-05-21T03:45:11.526Z,12.13
2023-05-21T03:47:56.286Z,12.16
2023-05-21T03:50:23.259Z,12.17
2023-05-21T03:52:49.785Z,12.10
2023-05-21T03:55:16.453Z,12.18
2023-05-21T03:57:43.314Z,12.25
2023-05-21T04:00:10.343Z,12.25
2023-05-21T04:02:42.611Z,12.24
2023-05-21T04:05:09.527Z,12.31
2023-05-21T04:07:38.540Z,12.28
2023-05-21T04:10:07.211Z,12.39
2023-05-21T04:12:33.985Z,12.37
2023-05-21T04:15:02.480Z,12.36
2023-05-21T04:17:29.438Z,12.35
2023-05-21T04:19:56.007Z,12.36
2023-05-21T04:22:23.519Z,12.47
2023-05-21T04:24:50.367Z,12.45
2023-05-21T04:27:23.685Z,12.50
2023-05-21T04:29:51.087Z,12.53
2023-05-21T04:32:18.170Z,12.56
2023-05-21T04:34:44.749Z,12.56
2023-05-21T04:37:12.007Z,12.61
2023-05-21T04:39:38.451Z,12.59
2023-05-21T04:42:05.485Z,12.59
2023-05-21T04:44:32.209Z,12.72
2023-05-21T04:47:00.544Z,12.77
2023-05-21T04:49:27.188Z,12.79
2023-05-21T04:51:53.855Z,12.82
2023-05-21T04:54:20.440Z,12.93
2023-05-21T04:56:47.438Z,12.96
2023-05-21T04:59:15.019Z,12.93
2023-05-21T05:01:44.057Z,12.98
2023-05-21T05:04:10.766Z,13.01
2023-05-21T05:06:37.491Z,13.07
2023-05-21T05:09:05.199Z,13.12
2023-05-21T05:11:31.868Z,13.21
2023-05-21T05:13:58.346Z,13.28
2023-05-21T05:16:25.731Z,13.33
2023-05-21T05:18:55.717Z,13.32
2023-05-21T05:21:23.309Z,13.37
2023-05-21T05:23:50.114Z,13.42
2023-05-21T05:26:17.133Z,13.38
2023-05-21T05:28:43.693Z,13.32
2023-05-21T05:31:10.441Z,13.44
2023-05-21T05:33:36.976Z,13.53
2023-05-21T05:36:03.865Z,13.59
2023-05-21T05:38:31.131Z,13.60
2023-05-21T05:40:57.962Z,13.63
2023-05-21T05:43:25.601Z,13.63
2023-05-21T05:45:52.820Z,13.69
2023-05-21T05:48:19.377Z,13.74
2023-05-21T05:50:46.572Z,13.81
2023-05-21T05:53:14.625Z,13.89
2023-05-21T05:55:41.272Z,13.90
2023-05-21T05:58:07.838Z,13.91
2023-05-21T06:00:46.892Z,13.94
2023-05-21T06:03:13.483Z,13.95
2023-05-21T06:05:42.001Z,14.06
2023-05-21T06:08:08.564Z,14.21
2023-05-21T06:10:35.114Z,14.30
2023-05-21T06:13:03.502Z,14.51
2023-05-21T06:15:30.328Z,14.59
2023-05-21T06:17:56.853Z,14.67
2023-05-21T06:20:23.415Z,14.81
2023-05-21T06:22:49.916Z,14.78
2023-05-21T06:25:16.740Z,14.84
2023-05-21T06:27:43.260Z,14.96
2023-05-21T06:30:17.126Z,14.94
2023-05-21T06:32:44.263Z,14.96
2023-05-21T06:35:10.968Z,15.04
2023-05-21T06:37:37.426Z,15.12
2023-05-21T06:40:04.606Z,15.18
2023-05-21T06:42:31.626Z,15.27
2023-05-21T06:45:18.600Z,15.35
2023-05-21T06:47:45.940Z,15.35
2023-05-21T06:50:12.618Z,15.38
2023-05-21T06:52:39.860Z,15.44
2023-05-21T06:55:07.237Z,15.56
2023-05-21T06:57:53.776Z,15.66
2023-05-21T07:00:20.617Z,15.76
2023-05-21T07:02:48.276Z,15.89
2023-05-21T07:05:14.772Z,15.98
2023-05-21T07:07:41.636Z,16.01
2023-05-21T07:10:09.073Z,16.05
2023-05-21T07:12:35.590Z,16.12
2023-05-21T07:15:03.682Z,16.25
2023-05-21T07:17:30.268Z,16.27
2023-05-21T07:19:56.961Z,16.27
2023-05-21T07:22:25.564Z,16.31
2023-05-21T07:24:54.169Z,16.46
2023-05-21T07:27:25.641Z,16.49
2023-05-21T07:29:54.471Z,16.54
2023-05-21T07:32:21.906Z,16.54
2023-05-21T07:34:48.654Z,16.72
2023-05-21T07:37:15.225Z,16.71
2023-05-21T07:39:42.126Z,16.83
2023-05-21T07:42:09.318Z,16.76
2023-05-21T07:44:35.995Z,17.02
2023-05-21T07:47:02.547Z,17.25
2023-05-21T07:49:29.021Z,17.36
2023-05-21T07:51:55.633Z,17.58
2023-05-21T07:54:22.179Z,17.69
2023-05-21T07:56:48.682Z,17.76
2023-05-21T07:59:31.760Z,17.73
2023-05-21T08:01:58.323Z,17.82
2023-05-21T08:04:25.285Z,17.98
2023-05-21T08:06:52.281Z,18.12
2023-05-21T08:09:19.388Z,18.22
2023-05-21T08:11:46.535Z,18.30
2023-05-21T08:14:13.094Z,18.37
2023-05-21T08:16:39.709Z,18.40
2023-05-21T08:19:06.747Z,18.36
2023-05-21T08:21:34.479Z,18.48
2023-05-21T08:24:02.745Z,18.60
2023-05-21T08:26:29.280Z,18.66
2023-05-21T08:28:56.521Z,18.69
2023-05-21T08:31:23.222Z,18.78
2023-05-21T08:33:52.704Z,18.93
2023-05-21T08:36:24.877Z,19.09
2023-05-21T08:38:56.334Z,19.19
2023-05-21T08:41:30.862Z,19.21
2023-05-21T08:44:01.269Z,19.33
2023-05-21T08:46:33.384Z,19.31
2023-05-21T08:49:02.949Z,19.40
2023-05-21T08:51:31.013Z,19.36
2023-05-21T08:53:59.580Z,19.36
2023-05-21T08:56:27.112Z,19.31
2023-05-21T08:58:57.252Z,19.38
2023-05-21T09:01:27.571Z,19.49
2023-05-21T09:04:16.245Z,19.58
2023-05-21T09:06:48.543Z,19.63
2023-05-21T09:09:34.803Z,19.63
2023-05-21T09:12:01.835Z,19.59
2023-05-21T09:14:29.068Z,19.41
2023-05-21T09:17:01.860Z,19.48
2023-05-21T09:19:30.253Z,19.62
2023-05-21T09:22:02.622Z,19.66
2023-05-21T09:24:35.723Z,19.67
2023-05-21T09:27:06.619Z,19.63
2023-05-21T09:29:34.456Z,19.66
2023-05-21T09:32:06.900Z,19.75
2023-05-21T09:34:36.778Z,19.99
2023-05-21T09:37:06.449Z,20.02
2023-05-21T09:39:35.737Z,20.14
2023-05-21T09:42:04.131Z,20.13
2023-05-21T09:44:32.395Z,20.25
2023-05-21T09:46:59.512Z,20.37
2023-05-21T09:49:26.713Z,20.21
2023-05-21T09:51:57.840Z,20.29
2023-05-21T09:54:26.034Z,20.46
2023-05-21T09:56:55.418Z,20.64
2023-05-21T09:59:22.315Z,20.77
2023-05-21T10:01:52.884Z,20.91
2023-05-21T10:04:20.091Z,20.94
2023-05-21T10:06:48.013Z,21.16
2023-05-21T10:09:18.833Z,21.31
2023-05-21T10:11:49.392Z,21.33
2023-05-21T10:14:20.833Z,21.18
2023-05-21T10:16:48.127Z,21.46
2023-05-21T10:19:16.203Z,21.57
2023-05-21T10:21:44.885Z,21.68
2023-05-21T10:24:11.893Z,21.87
2023-05-21T10:26:39.660Z,21.93
2023-05-21T10:29:08.077Z,21.86
2023-05-21T10:31:35.948Z,22.10
2023-05-21T10:34:04.647Z,22.28
2023-05-21T10:36:32.691Z,22.37
2023-05-21T10:39:00.383Z,22.52
2023-05-21T10:41:32.035Z,22.60
2023-05-21T10:44:11.033Z,22.87
2023-05-21T10:47:09.978Z,22.87
2023-05-21T10:49:50.694Z,22.92
2023-05-21T10:52:47.800Z,22.91
2023-05-21T10:55:17.038Z,22.85
2023-05-21T10:58:10.881Z,23.04
2023-05-21T11:00:38.526Z,23.26
2023-05-21T11:03:06.451Z,23.56
2023-05-21T11:05:41.240Z,23.82
2023-05-21T11:08:22.402Z,23.99
2023-05-21T11:10:54.072Z,23.98
2023-05-21T11:13:21.769Z,23.89
2023-05-21T11:15:57.665Z,24.20
2023-05-21T11:18:44.263Z,24.26
2023-05-21T11:21:18.388Z,24.23
2023-05-21T11:23:50.891Z,24.40
2023-05-21T11:26:19.127Z,24.61
2023-05-21T11:28:46.153Z,24.61
2023-05-21T11:31:26.909Z,24.71
2023-05-21T11:34:12.474Z,24.95
2023-05-21T11:36:45.939Z,25.04
2023-05-21T11:39:17.910Z,25.33
2023-05-21T11:42:04.154Z,24.88
2023-05-21T11:44:41.999Z,24.72
2023-05-21T11:47:10.308Z,24.66
2023-05-21T11:49:37.977Z,24.90
2023-05-21T11:52:06.350Z,25.05
2023-05-21T11:54:36.864Z,25.31
2023-05-21T11:57:09.973Z,25.32
2023-05-21T11:59:36.943Z,25.40
2023-05-21T12:02:04.883Z,25.59
2023-05-21T12:04:32.199Z,25.73
2023-05-21T12:06:59.022Z,25.81
2023-05-21T12:09:25.528Z,25.54
2023-05-21T12:11:52.994Z,25.54
2023-05-21T12:14:19.539Z,25.81
2023-05-21T12:16:46.055Z,26.22
2023-05-21T12:19:12.633Z,26.32
2023-05-21T12:21:39.167Z,26.74
2023-05-21T12:24:06.031Z,27.08
2023-05-21T12:26:33.164Z,27.30
2023-05-21T12:28:59.947Z,27.21
2023-05-21T12:31:27.510Z,27.09
2023-05-21T12:33:54.197Z,27.42
2023-05-21T12:36:34.209Z,27.22
2023-05-21T12:39:00.737Z,27.38
2023-05-21T12:41:27.954Z,27.52
2023-05-21T12:43:54.439Z,27.82
2023-05-21T12:46:21.293Z,28.05
2023-05-21T12:48:54.469Z,27.87
2023-05-21T12:51:21.367Z,27.80
2023-05-21T12:53:48.281Z,27.46
2023-05-21T12:56:15.826Z,27.98
2023-05-21T12:58:42.874Z,28.14
2023-05-21T13:01:11.025Z,27.71
2023-05-21T13:03:39.152Z,28.10
2023-05-21T13:06:06.646Z,27.96
2023-05-21T13:08:36.308Z,28.11
2023-05-21T13:11:03.857Z,28.30
2023-05-21T13:13:30.879Z,28.80
2023-05-21T13:15:57.488Z,29.07
2023-05-21T13:18:24.157Z,28.64
2023-05-21T13:20:51.702Z,28.62
2023-05-21T13:23:18.323Z,28.59
2023-05-21T13:25:44.862Z,29.26
2023-05-21T13:28:15.185Z,28.84
2023-05-21T13:30:41.738Z,28.75
2023-05-21T13:33:08.425Z,28.67
2023-05-21T13:35:35.277Z,28.89
2023-05-21T13:38:02.202Z,28.99
2023-05-21T13:40:28.768Z,29.11
2023-05-21T13:42:55.639Z,29.42
2023-05-21T13:45:24.272Z,29.58
2023-05-21T13:47:50.900Z,29.72
2023-05-21T13:50:17.622Z,29.31
2023-05-21T13:52:44.471Z,29.40
2023-05-21T13:55:11.012Z,28.78
2023-05-21T13:57:37.861Z,28.85
2023-05-21T14:00:04.913Z,28.98
2023-05-21T14:02:34.682Z,29.10
2023-05-21T14:05:01.357Z,28.62
2023-05-21T14:07:27.957Z,28.41
2023-05-21T14:09:54.616Z,28.75
2023-05-21T14:12:21.711Z,29.07
2023-05-21T14:14:49.927Z,28.98
2023-05-21T14:17:16.634Z,29.21
2023-05-21T14:19:43.224Z,29.15
2023-05-21T14:22:09.765Z,28.97
2023-05-21T14:24:36.512Z,29.12
2023-05-21T14:27:03.360Z,29.36
2023-05-21T14:29:29.887Z,29.04
2023-05-21T14:31:56.466Z,28.67
2023-05-21T14:34:23.181Z,28.40
2023-05-21T14:36:49.686Z,28.21
2023-05-21T14:39:17.186Z,28.43
2023-05-21T14:41:43.677Z,27.96
2023-05-21T14:44:10.185Z,27.85
2023-05-21T14:46:36.830Z,27.63
2023-05-21T14:49:03.777Z,27.67
2023-05-21T14:51:31.454Z,27.73
2023-05-21T14:53:58.040Z,27.56
2023-05-21T14:56:28.546Z,27.64
2023-05-21T14:58:56.321Z,27.24
2023-05-21T15:01:23.349Z,26.98
2023-05-21T15:03:50.025Z,26.72
2023-05-21T15:06:16.687Z,26.50
2023-05-21T15:08:43.269Z,26.58
2023-05-21T15:11:09.920Z,26.74
2023-05-21T15:13:36.699Z,26.76
2023-05-21T15:16:03.467Z,26.60
2023-05-21T15:18:30.277Z,26.64
2023-05-21T15:20:56.998Z,26.70
2023-05-21T15:23:23.550Z,26.73
2023-05-21T15:25:50.218Z,26.50
2023-05-21T15:28:16.999Z,26.40
2023-05-21T15:30:43.602Z,26.18
2023-05-21T15:33:10.094Z,26.38
2023-05-21T15:35:37.221Z,26.10
2023-05-21T15:38:04.170Z,25.91
2023-05-21T15:40:31.933Z,26.05
2023-05-21T15:42:58.662Z,26.34
2023-05-21T15:45:25.252Z,26.40
2023-05-21T15:47:51.938Z,26.61
2023-05-21T15:50:18.607Z,26.81
2023-05-21T15:52:45.154Z,27.08
2023-05-21T15:55:11.789Z,27.27
2023-05-21T15:57:38.645Z,27.39
2023-05-21T16:00:06.228Z,27.34
2023-05-21T16:02:35.516Z,27.24
2023-05-21T16:05:02.224Z,27.36
2023-05-21T16:07:28.843Z,27.27
2023-05-21T16:09:55.317Z,27.04
2023-05-21T16:12:21.881Z,27.05
2023-05-21T16:14:49.992Z,27.05
2023-05-21T16:17:17.166Z,26.84
2023-05-21T16:19:43.709Z,26.82
2023-05-21T16:22:11.039Z,26.66
2023-05-21T16:24:37.785Z,26.43
2023-05-21T16:27:05.152Z,26.29
2023-05-21T16:29:31.858Z,26.06
2023-05-21T16:31:58.516Z,26.14
2023-05-21T16:34:25.003Z,26.29
2023-05-21T16:36:51.942Z,26.37
2023-05-21T16:39:18.406Z,26.19
2023-05-21T16:41:44.929Z,25.89
2023-05-21T16:44:11.481Z,25.74
2023-05-21T16:46:38.054Z,25.66
2023-05-21T16:49:04.561Z,25.64
2023-05-21T16:51:31.595Z,25.62
2023-05-21T16:53:58.083Z,25.49
2023-05-21T16:56:24.961Z,25.48
2023-05-21T16:58:51.472Z,25.39
2023-05-21T17:01:18.050Z,25.38
2023-05-21T17:03:44.755Z,25.38
2023-05-21T17:06:11.543Z,25.47
2023-05-21T17:08:38.105Z,25.32
2023-05-21T17:11:04.670Z,25.19
2023-05-21T17:13:31.228Z,25.13
2023-05-21T17:15:57.860Z,24.89
2023-05-21T17:18:24.489Z,24.87
2023-05-21T17:20:51.024Z,24.81
2023-05-21T17:23:17.590Z,24.78
2023-05-21T17:25:44.440Z,24.62
2023-05-21T17:28:11.314Z,24.63
2023-05-21T17:30:37.865Z,24.48
2023-05-21T17:33:04.490Z,24.55
2023-05-21T17:35:31.421Z,24.45
2023-05-21T17:37:58.007Z,24.35
2023-05-21T17:40:25.085Z,24.42
2023-05-21T17:42:52.410Z,24.35
2023-05-21T17:45:19.576Z,24.40
2023-05-21T17:47:46.231Z,24.29
2023-05-21T17:50:12.960Z,24.25
2023-05-21T17:52:39.927Z,24.20
2023-05-21T17:55:07.608Z,24.23
2023-05-21T17:57:35.474Z,24.18
2023-05-21T18:00:02.882Z,24.14
2023-05-21T18:02:38.425Z,23.98
2023-05-21T18:05:05.394Z,23.97
2023-05-21T18:07:32.062Z,23.89
2023-05-21T18:09:58.759Z,23.80
2023-05-21T18:12:25.410Z,23.76
2023-05-21T18:14:51.902Z,23.86
2023-05-21T18:17:18.527Z,23.76
2023-05-21T18:19:45.043Z,23.62
2023-05-21T18:22:11.826Z,23.65
2023-05-21T18:24:39.526Z,23.53
2023-05-21T18:27:06.172Z,23.45
2023-05-21T18:29:32.732Z,23.42
2023-05-21T18:31:59.597Z,23.34
2023-05-21T18:34:26.064Z,23.23
2023-05-21T18:36:54.635Z,23.16
2023-05-21T18:39:24.503Z,23.03
2023-05-21T18:41:55.765Z,22.99
2023-05-21T18:44:29.636Z,22.89
2023-05-21T18:46:57.946Z,22.83
2023-05-21T18:49:24.732Z,22.83
2023-05-21T18:51:51.262Z,22.80
2023-05-21T18:54:17.804Z,22.84
2023-05-21T18:56:44.528Z,22.77
2023-05-21T18:59:11.009Z,22.59
2023-05-21T19:01:38.028Z,22.53
2023-05-21T19:04:05.161Z,22.50
2023-05-21T19:06:31.980Z,22.40
2023-05-21T19:08:58.482Z,22.34
2023-05-21T19:11:30.792Z,22.32
2023-05-21T19:13:57.371Z,22.21
2023-05-21T19:16:23.978Z,22.10
2023-05-21T19:18:50.531Z,22.09
2023-05-21T19:21:17.575Z,22.03
2023-05-21T19:23:52.492Z,22.04
2023-05-21T19:26:21.357Z,22.03
2023-05-21T19:28:52.738Z,22.00
2023-05-21T19:31:20.492Z,21.98
2023-05-21T19:33:47.109Z,21.90
2023-05-21T19:36:14.323Z,21.85
2023-05-21T19:38:48.201Z,21.81
2023-05-21T19:41:16.415Z,21.78
2023-05-21T19:43:43.101Z,21.72
2023-05-21T19:46:09.817Z,21.66
2023-05-21T19:48:36.495Z,21.62
2023-05-21T19:51:04.509Z,21.59
2023-05-21T19:53:30.961Z,21.60
2023-05-21T19:55:57.542Z,21.59
2023-05-21T19:58:26.784Z,21.54
2023-05-21T20:00:55.867Z,21.55
2023-05-21T20:03:22.393Z,21.53
2023-05-21T20:05:49.016Z,21.46
2023-05-21T20:08:16.405Z,21.44
2023-05-21T20:10:43.111Z,21.44
2023-05-21T20:13:09.595Z,21.41
2023-05-21T20:15:36.347Z,21.31
2023-05-21T20:18:02.884Z,21.30
2023-05-21T20:20:29.724Z,21.33
2023-05-21T20:22:57.991Z,21.33
2023-05-21T20:25:24.534Z,21.27
2023-05-21T20:27:51.068Z,21.27
2023-05-21T20:30:17.726Z,21.25
2023-05-21T20:32:44.217Z,21.19
2023-05-21T20:35:10.728Z,21.07
2023-05-21T20:37:37.361Z,21.10
2023-05-21T20:40:05.589Z,21.12
2023-05-21T20:42:34.956Z,21.09
2023-05-21T20:45:03.102Z,21.08
2023-05-21T20:47:30.069Z,21.01
2023-05-21T20:49:59.293Z,20.95
2023-05-21T20:52:26.061Z,20.93
2023-05-21T20:54:54.778Z,20.90
2023-05-21T20:57:22.446Z,20.91
2023-05-21T20:59:48.966Z,20.88
2023-05-21T21:02:17.738Z,20.91
2023-05-21T21:04:44.332Z,20.86
2023-05-21T21:07:11.914Z,20.87
2023-05-21T21:09:38.369Z,20.74
2023-05-21T21:12:21.229Z,20.70
2023-05-21T21:14:51.515Z,20.62
2023-05-21T21:17:18.028Z,20.62
2023-05-21T21:19:44.487Z,20.53
2023-05-21T21:22:11.527Z,20.52
2023-05-21T21:24:38.022Z,20.57
2023-05-21T21:27:04.923Z,20.58
2023-05-21T21:29:31.464Z,20.55
2023-05-21T21:31:58.159Z,20.57
2023-05-21T21:34:25.182Z,20.54
2023-05-21T21:36:51.839Z,20.44
2023-05-21T21:39:18.368Z,20.45
2023-05-21T21:41:45.702Z,20.44
2023-05-21T21:44:12.244Z,20.44
2023-05-21T21:46:39.159Z,20.35
2023-05-21T21:49:05.640Z,20.28
2023-05-21T21:51:32.301Z,20.27
2023-05-21T21:53:58.757Z,20.22
2023-05-21T21:56:26.114Z,20.25
2023-05-21T21:58:52.934Z,20.31
2023-05-21T22:01:19.672Z,20.26
2023-05-21T22:03:46.176Z,20.13
2023-05-21T22:06:12.654Z,20.09
2023-05-21T22:08:39.183Z,20.12
2023-05-21T22:11:05.978Z,20.07
2023-05-21T22:13:32.574Z,20.02
2023-05-21T22:15:59.034Z,19.96
2023-05-21T22:18:39.509Z,19.87
2023-05-21T22:21:09.419Z,19.85
2023-05-21T22:23:37.048Z,19.87
2023-05-21T22:26:03.900Z,19.86
2023-05-21T22:28:30.697Z,19.87
2023-05-21T22:30:57.234Z,19.78
2023-05-21T22:33:23.990Z,19.74
2023-05-21T22:35:50.677Z,19.75
2023-05-21T22:38:17.998Z,19.64
2023-05-21T22:40:44.496Z,19.60
2023-05-21T22:43:11.238Z,19.61
2023-05-21T22:45:38.360Z,19.60
2023-05-21T22:48:08.577Z,19.59
2023-05-21T22:50:35.752Z,19.49
2023-05-21T22:53:02.685Z,19.54
2023-05-21T22:55:29.506Z,19.47
2023-05-21T22:57:56.167Z,19.44
2023-05-21T23:00:22.910Z,19.43
2023-05-21T23:02:52.135Z,19.33
2023-05-21T23:05:20.449Z,19.34
2023-05-21T23:07:47.010Z,19.23
2023-05-21T23:10:13.586Z,19.24
2023-05-21T23:12:40.825Z,19.25
2023-05-21T23:15:09.492Z,19.17
2023-05-21T23:17:36.183Z,19.11
2023-05-21T23:20:02.873Z,19.10
2023-05-21T23:22:29.966Z,19.06
2023-05-21T23:24:56.424Z,19.06
2023-05-21T23:27:22.930Z,19.09
2023-05-21T23:29:49.399Z,19.05
2023-05-21T23:32:16.228Z,19.03
2023-05-21T23:34:42.808Z,18.93
2023-05-21T23:37:09.350Z,18.83
2023-05-21T23:39:36.645Z,18.78
2023-05-21T23:42:03.398Z,18.75
2023-05-21T23:44:30.107Z,18.76
2023-05-21T23:46:56.630Z,18.75
2023-05-21T23:49:23.366Z,18.73
2023-05-21T23:51:50.702Z,18.69
2023-05-21T23:54:17.537Z,18.67
2023-05-21T23:56:44.089Z,18.67
2023-05-21T23:59:11.035Z,18.72
